Time,TemperatureF,DewpointF,PressureIn,WindDirection,WindDirectionDegrees,WindSpeedMPH,WindSpeedGustMPH,Humidity,HourlyPrecipIn,Conditions,Clouds,dailyrainin,SoftwareType,DateUTC
2013-08-06 00:01:00,54.0,25.0,30.19,NW,311,0.0,0.0,32,0.00,,,0.00,,2013-08-06 07:01:00,
2013-08-06 00:22:00,54.0,26.0,30.19,NW,311,0.0,0.0,33,0.00,,,0.00,,2013-08-06 07:22:00,
2013-08-06 00:32:00,53.0,24.0,30.19,NW,311,0.0,1.0,32,0.00,,,0.00,,2013-08-06 07:32:00,
2013-08-06 00:43:00,53.0,24.0,30.19,NW,311,0.0,0.0,32,0.00,,,0.00,,2013-08-06 07:43:00,
2013-08-06 00:53:00,53.0,24.0,30.19,NW,311,0.0,0.0,32,0.00,,,0.00,,2013-08-06 07:53:00,
2013-08-06 01:01:00,53.0,23.0,30.19,NW,311,0.0,0.0,31,0.00,,,0.00,,2013-08-06 08:01:00,
2013-08-06 01:11:00,53.0,23.0,30.19,NW,311,0.0,0.0,31,0.00,,,0.00,,2013-08-06 08:11:00,
2013-08-06 01:21:00,53.0,23.0,30.19,NW,311,0.0,0.0,31,0.00,,,0.00,,2013-08-06 08:21:00,
2013-08-06 01:32:00,53.0,22.0,30.19,NW,309,1.0,2.0,29,0.00,,,0.00,,2013-08-06 08:32:00,
2013-08-06 01:52:00,52.0,22.0,30.18,WNW,301,1.0,2.0,30,0.00,,,0.00,,2013-08-06 08:52:00,
2013-08-06 02:01:00,51.0,21.0,30.18,WNW,301,0.0,1.0,31,0.00,,,0.00,,2013-08-06 09:01:00,
2013-08-06 02:11:00,51.0,21.0,30.18,WNW,301,0.0,0.0,31,0.00,,,0.00,,2013-08-06 09:11:00,
2013-08-06 02:32:00,51.0,21.0,30.18,WNW,301,0.0,0.0,31,0.00,,,0.00,,2013-08-06 09:32:00,
2013-08-06 02:52:00,51.0,21.0,30.17,WNW,301,0.0,0.0,31,0.00,,,0.00,,2013-08-06 09:52:00,
2013-08-06 03:01:00,51.0,21.0,30.17,WNW,301,0.0,1.0,31,0.00,,,0.00,,2013-08-06 10:01:00,
2013-08-06 03:11:00,51.0,21.0,30.17,WNW,301,0.0,1.0,31,0.00,,,0.00,,2013-08-06 10:11:00,
2013-08-06 03:22:00,51.0,21.0,30.17,WNW,301,0.0,0.0,30,0.00,,,0.00,,2013-08-06 10:22:00,
2013-08-06 03:32:00,50.0,21.0,30.17,WNW,301,0.0,1.0,31,0.00,,,0.00,,2013-08-06 10:32:00,
2013-08-06 03:42:00,50.0,21.0,30.17,WNW,296,1.0,2.0,32,0.00,,,0.00,,2013-08-06 10:42:00,
2013-08-06 03:53:00,50.0,21.0,30.16,WNW,296,0.0,2.0,32,0.00,,,0.00,,2013-08-06 10:53:00,
2013-08-06 04:01:00,50.0,21.0,30.16,WNW,296,0.0,2.0,32,0.00,,,0.00,,2013-08-06 11:01:00,
2013-08-06 04:32:00,49.0,23.0,30.16,WNW,296,0.0,1.0,36,0.00,,,0.00,,2013-08-06 11:32:00,
2013-08-06 04:43:00,49.0,23.0,30.16,WNW,296,0.0,1.0,36,0.00,,,0.00,,2013-08-06 11:43:00,
2013-08-06 04:53:00,50.0,23.0,30.16,SW,229,2.0,4.0,35,0.00,,,0.00,,2013-08-06 11:53:00,
2013-08-06 05:01:00,50.0,25.0,30.16,SW,229,0.0,4.0,37,0.00,,,0.00,,2013-08-06 12:01:00,
2013-08-06 05:11:00,50.0,25.0,30.16,SW,229,0.0,0.0,37,0.00,,,0.00,,2013-08-06 12:11:00,
2013-08-06 05:31:00,50.0,25.0,30.16,SW,229,0.0,0.0,38,0.00,,,0.00,,2013-08-06 12:31:00,
2013-08-06 05:43:00,50.0,21.0,30.17,SW,229,0.0,0.0,32,0.00,,,0.00,,2013-08-06 12:43:00,
2013-08-06 05:52:00,49.0,20.0,30.17,SW,229,0.0,0.0,32,0.00,,,0.00,,2013-08-06 12:52:00,
2013-08-06 06:01:00,49.0,20.0,30.17,SW,229,0.0,0.0,32,0.00,,,0.00,,2013-08-06 13:01:00,
2013-08-06 06:11:00,49.0,20.0,30.17,SW,229,0.0,0.0,32,0.00,,,0.00,,2013-08-06 13:11:00,
2013-08-06 06:53:00,48.0,22.0,30.18,SW,229,0.0,0.0,36,0.00,,,0.00,,2013-08-06 13:53:00,
2013-08-06 07:11:00,48.0,24.0,30.19,SW,229,1.0,3.0,38,0.00,,,0.00,,2013-08-06 14:11:00,
2013-08-06 07:32:00,50.0,25.0,30.19,SW,229,0.0,1.0,38,0.00,,,0.00,,2013-08-06 14:32:00,
2013-08-06 07:42:00,50.0,25.0,30.19,SW,229,0.0,0.0,38,0.00,,,0.00,,2013-08-06 14:42:00,
2013-08-06 08:02:00,54.0,31.0,30.19,SW,229,1.0,4.0,41,0.00,,,0.00,,2013-08-06 15:02:00,
2013-08-06 08:11:00,56.0,31.0,30.19,SW,229,0.0,1.0,38,0.00,,,0.00,,2013-08-06 15:11:00,
2013-08-06 08:22:00,58.0,33.0,30.19,SW,224,1.0,4.0,38,0.00,,,0.00,,2013-08-06 15:22:00,
2013-08-06 08:33:00,61.0,22.0,30.20,SW,223,1.0,5.0,22,0.00,,,0.00,,2013-08-06 15:33:00,
2013-08-06 08:43:00,62.0,18.0,30.21,SW,232,0.0,5.0,18,0.00,,,0.00,,2013-08-06 15:43:00,
2013-08-06 08:52:00,64.0,18.0,30.21,SW,217,0.0,2.0,17,0.00,,,0.00,,2013-08-06 15:52:00,
2013-08-06 09:01:00,66.0,21.0,30.21,South,184,0.0,0.0,18,0.00,,,0.00,,2013-08-06 16:01:00,
2013-08-06 09:11:00,67.0,19.0,30.21,SW,215,2.0,4.0,16,0.00,,,0.00,,2013-08-06 16:11:00,
2013-08-06 09:22:00,68.0,17.0,30.21,SSW,209,1.0,5.0,14,0.00,,,0.00,,2013-08-06 16:22:00,
2013-08-06 09:32:00,70.0,19.0,30.21,SW,232,0.0,5.0,14,0.00,,,0.00,,2013-08-06 16:32:00,
2013-08-06 09:42:00,71.0,18.0,30.22,SW,215,0.0,5.0,13,0.00,,,0.00,,2013-08-06 16:42:00,
2013-08-06 09:52:00,72.0,18.0,30.22,SSW,192,1.0,5.0,13,0.00,,,0.00,,2013-08-06 16:52:00,
2013-08-06 10:01:00,73.0,13.0,30.22,SW,230,2.0,9.0,10,0.00,,,0.00,,2013-08-06 17:01:00,
2013-08-06 10:11:00,73.0,13.0,30.22,SSW,202,2.0,11.0,10,0.00,,,0.00,,2013-08-06 17:11:00,
2013-08-06 10:43:00,75.0,10.0,30.22,SW,234,3.0,7.0,8,0.00,,,0.00,,2013-08-06 17:43:00,
2013-08-06 11:01:00,76.0,4.0,30.22,SW,220,4.0,11.0,6,0.00,,,0.00,,2013-08-06 18:01:00,
2013-08-06 11:11:00,76.0,4.0,30.22,SW,217,3.0,11.0,6,0.00,,,0.00,,2013-08-06 18:11:00,
2013-08-06 11:32:00,77.0,5.0,30.22,SSW,212,3.0,12.0,6,0.00,,,0.00,,2013-08-06 18:32:00,
2013-08-06 11:43:00,77.0,5.0,30.22,SSW,205,5.0,7.0,6,0.00,,,0.00,,2013-08-06 18:43:00,
2013-08-06 11:52:00,77.0,5.0,30.22,SSW,205,5.0,7.0,6,0.00,,,0.00,,2013-08-06 18:52:00,
2013-08-06 12:01:00,78.0,6.0,30.22,SW,222,2.0,11.0,6,0.00,,,0.00,,2013-08-06 19:01:00,
2013-08-06 12:11:00,78.0,12.0,30.22,ESE,123,2.0,11.0,8,0.00,,,0.00,,2013-08-06 19:11:00,
2013-08-06 12:21:00,78.0,15.0,30.22,SW,219,4.0,16.0,9,0.00,,,0.00,,2013-08-06 19:21:00,
2013-08-06 12:32:00,78.0,17.0,30.22,SSW,203,3.0,16.0,10,0.00,,,0.00,,2013-08-06 19:32:00,
2013-08-06 12:42:00,78.0,17.0,30.22,SSW,203,3.0,16.0,10,0.00,,,0.00,,2013-08-06 19:42:00,
2013-08-06 12:52:00,78.0,19.0,30.22,SE,144,2.0,7.0,11,0.00,,,0.00,,2013-08-06 19:52:00,
2013-08-06 13:43:00,80.0,27.0,30.22,SW,233,2.0,7.0,14,0.00,,,0.00,,2013-08-06 20:43:00,
2013-08-06 13:52:00,80.0,25.0,30.22,WSW,258,0.0,7.0,13,0.00,,,0.00,,2013-08-06 20:52:00,
2013-08-06 14:11:00,80.0,21.0,30.22,South,182,2.0,6.0,11,0.00,,,0.00,,2013-08-06 21:11:00,
2013-08-06 14:43:00,79.0,22.0,30.21,SW,224,2.0,7.0,12,0.00,,,0.00,,2013-08-06 21:43:00,
2013-08-06 14:52:00,79.0,24.0,30.21,SW,229,3.0,9.0,13,0.00,,,0.00,,2013-08-06 21:52:00,
2013-08-06 15:11:00,79.0,24.0,30.21,SSE,151,3.0,11.0,13,0.00,,,0.00,,2013-08-06 22:11:00,
2013-08-06 15:21:00,80.0,23.0,30.21,SW,230,3.0,9.0,12,0.00,,,0.00,,2013-08-06 22:21:00,
2013-08-06 15:32:00,80.0,25.0,30.21,SW,217,3.0,9.0,13,0.00,,,0.00,,2013-08-06 22:32:00,
2013-08-06 15:43:00,79.0,24.0,30.21,SW,215,2.0,7.0,13,0.00,,,0.00,,2013-08-06 22:43:00,
2013-08-06 15:52:00,79.0,24.0,30.21,ESE,113,2.0,6.0,13,0.00,,,0.00,,2013-08-06 22:52:00,
2013-08-06 16:01:00,79.0,24.0,30.20,SSW,199,4.0,12.0,13,0.00,,,0.00,,2013-08-06 23:01:00,
2013-08-06 16:11:00,78.0,25.0,30.20,SW,232,4.0,12.0,14,0.00,,,0.00,,2013-08-06 23:11:00,
2013-08-06 16:22:00,78.0,25.0,30.20,WSW,240,2.0,10.0,14,0.00,,,0.00,,2013-08-06 23:22:00,
2013-08-06 16:32:00,78.0,25.0,30.20,South,189,4.0,8.0,14,0.00,,,0.00,,2013-08-06 23:32:00,
2013-08-06 16:42:00,78.0,25.0,30.19,SSW,210,3.0,13.0,14,0.00,,,0.00,,2013-08-06 23:42:00,
2013-08-06 16:52:00,77.0,24.0,30.19,SW,226,3.0,13.0,14,0.00,,,0.00,,2013-08-06 23:52:00,
2013-08-06 17:01:00,77.0,24.0,30.19,WSW,241,3.0,9.0,14,0.00,,,0.00,,2013-08-07 00:01:00,
2013-08-06 17:11:00,77.0,24.0,30.19,South,176,2.0,9.0,14,0.00,,,0.00,,2013-08-07 00:11:00,
2013-08-06 17:32:00,75.0,19.0,30.19,WSW,237,3.0,9.0,12,0.00,,,0.00,,2013-08-07 00:32:00,
2013-08-06 17:43:00,74.0,18.0,30.19,SSW,206,4.0,11.0,12,0.00,,,0.00,,2013-08-07 00:43:00,
2013-08-06 18:01:00,73.0,19.0,30.19,SW,230,3.0,9.0,13,0.00,,,0.00,,2013-08-07 01:01:00,
2013-08-06 18:21:00,72.0,22.0,30.19,SW,226,3.0,10.0,15,0.00,,,0.00,,2013-08-07 01:21:00,
2013-08-06 18:43:00,69.0,21.0,30.19,South,188,2.0,7.0,16,0.00,,,0.00,,2013-08-07 01:43:00,
2013-08-06 18:52:00,69.0,22.0,30.19,South,182,2.0,7.0,17,0.00,,,0.00,,2013-08-07 01:52:00,
2013-08-06 19:11:00,67.0,23.0,30.19,SW,229,1.0,11.0,19,0.00,,,0.00,,2013-08-07 02:11:00,
2013-08-06 19:21:00,67.0,23.0,30.19,SW,224,3.0,7.0,19,0.00,,,0.00,,2013-08-07 02:21:00,
2013-08-06 19:33:00,66.0,24.0,30.19,SW,220,2.0,6.0,20,0.00,,,0.00,,2013-08-07 02:33:00,
2013-08-06 19:43:00,66.0,25.0,30.19,SSW,202,1.0,5.0,21,0.00,,,0.00,,2013-08-07 02:43:00,
2013-08-06 19:53:00,65.0,24.0,30.19,SSW,208,1.0,4.0,21,0.00,,,0.00,,2013-08-07 02:53:00,
2013-08-06 20:01:00,64.0,23.0,30.19,SSW,200,2.0,4.0,21,0.00,,,0.00,,2013-08-07 03:01:00,
2013-08-06 20:11:00,64.0,24.0,30.19,SSW,212,2.0,7.0,22,0.00,,,0.00,,2013-08-07 03:11:00,
2013-08-06 20:22:00,63.0,24.0,30.19,SW,215,1.0,2.0,22,0.00,,,0.00,,2013-08-07 03:22:00,
2013-08-06 20:32:00,63.0,26.0,30.20,SW,219,0.0,5.0,24,0.00,,,0.00,,2013-08-07 03:32:00,
2013-08-06 20:43:00,62.0,27.0,30.20,SSW,208,1.0,6.0,26,0.00,,,0.00,,2013-08-07 03:43:00,
2013-08-06 20:52:00,61.0,27.0,30.20,SW,223,0.0,6.0,27,0.00,,,0.00,,2013-08-07 03:52:00,
2013-08-06 21:01:00,61.0,27.0,30.20,SW,222,0.0,2.0,27,0.00,,,0.00,,2013-08-07 04:01:00,
2013-08-06 21:11:00,61.0,27.0,30.20,SW,222,0.0,2.0,27,0.00,,,0.00,,2013-08-07 04:11:00,
2013-08-06 21:21:00,61.0,27.0,30.20,SW,222,0.0,2.0,27,0.00,,,0.00,,2013-08-07 04:21:00,
2013-08-06 21:33:00,60.0,27.0,30.21,SSW,212,0.0,2.0,28,0.00,,,0.00,,2013-08-07 04:33:00,
2013-08-06 21:42:00,60.0,27.0,30.21,WSW,246,0.0,3.0,28,0.00,,,0.00,,2013-08-07 04:42:00,
2013-08-06 21:52:00,60.0,26.0,30.21,WSW,248,0.0,0.0,27,0.00,,,0.00,,2013-08-07 04:52:00,
2013-08-06 22:02:00,60.0,25.0,30.21,NW,304,0.0,1.0,26,0.00,,,0.00,,2013-08-07 05:02:00,
2013-08-06 22:11:00,60.0,25.0,30.22,NW,306,0.0,0.0,26,0.00,,,0.00,,2013-08-07 05:11:00,
2013-08-06 22:22:00,60.0,25.0,30.22,WSW,253,0.0,1.0,26,0.00,,,0.00,,2013-08-07 05:22:00,
2013-08-06 22:32:00,60.0,26.0,30.22,WSW,253,0.0,1.0,27,0.00,,,0.00,,2013-08-07 05:32:00,
2013-08-06 22:43:00,58.0,24.0,30.22,WSW,253,0.0,1.0,27,0.00,,,0.00,,2013-08-07 05:43:00,
2013-08-06 22:52:00,57.0,23.0,30.22,West,265,0.0,0.0,27,0.00,,,0.00,,2013-08-07 05:52:00,
2013-08-06 23:02:00,57.0,27.0,30.22,West,263,0.0,0.0,32,0.00,,,0.00,,2013-08-07 06:02:00,
2013-08-06 23:11:00,56.0,21.0,30.22,West,263,0.0,1.0,25,0.00,,,0.00,,2013-08-07 06:11:00,
2013-08-06 23:32:00,56.0,26.0,30.22,WSW,243,0.0,0.0,31,0.00,,,0.00,,2013-08-07 06:32:00,
2013-08-06 23:43:00,55.0,26.0,30.22,WSW,243,0.0,0.0,32,0.00,,,0.00,,2013-08-07 06:43:00,
2013-08-06 23:52:00,54.0,26.0,30.22,WSW,243,0.0,0.0,33,0.00,,,0.00,,2013-08-07 06:52:00,